KNE105 OERK-OEJN
Flight info
| Callsign | KNE105 |
|---|---|
| Flight time | 1h 22m |
| Altitude | 34000 |
| Route | DURMA G782 VEMEM |
| Aircraft | A320/M-SDE3FGHIRWY/LB1 |
Departure
| Time | 2026-04-29 01:22 |
|---|---|
| Airport | King Khalid International Airport (OERK) |
Arrival
| Time | 2026-04-29 02:44 |
|---|---|
| Airport | King Abdulaziz International Airport (OEJN) |
| Time | Latitude | Longitude | Altitude | Speed | Heading |
|---|---|---|---|---|---|
| 2026-04-29 01:01 | 24.94851 | 46.71376 | 2032 ft | 0 kts | 239° |
| 2026-04-29 01:11 | 24.94852 | 46.71379 | 2032 ft | 3 kts | 239° |
| 2026-04-29 01:12 | 24.94866 | 46.71404 | 2035 ft | 4 kts | 236° |
| 2026-04-29 01:12 | 24.94882 | 46.71428 | 2033 ft | 4 kts | 232° |
| 2026-04-29 01:12 | 24.94900 | 46.71450 | 2032 ft | 4 kts | 219° |
| 2026-04-29 01:12 | 24.94921 | 46.71463 | 2040 ft | 4 kts | 175° |
| 2026-04-29 01:13 | 24.94932 | 46.71460 | 2036 ft | 1 kts | 149° |
| 2026-04-29 01:13 | 24.94933 | 46.71459 | 2032 ft | 0 kts | 149° |
| 2026-04-29 01:15 | 24.94927 | 46.71463 | 2041 ft | 6 kts | 149° |
| 2026-04-29 01:15 | 24.94878 | 46.71495 | 2039 ft | 8 kts | 149° |
| 2026-04-29 01:15 | 24.94830 | 46.71526 | 2039 ft | 11 kts | 150° |
| 2026-04-29 01:16 | 24.94772 | 46.71589 | 2036 ft | 11 kts | 96° |
| 2026-04-29 01:16 | 24.94794 | 46.71662 | 2036 ft | 10 kts | 92° |
| 2026-04-29 01:16 | 24.94730 | 46.71728 | 2032 ft | 14 kts | 150° |
| 2026-04-29 01:16 | 24.94649 | 46.71777 | 2036 ft | 12 kts | 150° |
| 2026-04-29 01:17 | 24.94583 | 46.71821 | 2034 ft | 10 kts | 148° |
| 2026-04-29 01:17 | 24.94527 | 46.71856 | 2039 ft | 9 kts | 150° |
| 2026-04-29 01:17 | 24.94436 | 46.71914 | 2038 ft | 18 kts | 150° |
| 2026-04-29 01:17 | 24.94325 | 46.71985 | 2039 ft | 19 kts | 145° |
| 2026-04-29 01:18 | 24.94328 | 46.72111 | 2042 ft | 17 kts | 59° |
| 2026-04-29 01:18 | 24.94365 | 46.72180 | 2033 ft | 4 kts | 60° |
| 2026-04-29 01:18 | 24.94387 | 46.72220 | 2040 ft | 6 kts | 57° |
| 2026-04-29 01:19 | 24.94406 | 46.72251 | 2033 ft | 4 kts | 55° |
| 2026-04-29 01:19 | 24.94423 | 46.72262 | 2040 ft | 2 kts | 11° |
| 2026-04-29 01:19 | 24.94432 | 46.72260 | 2035 ft | 1 kts | 347° |
| 2026-04-29 01:19 | 24.94452 | 46.72247 | 2039 ft | 6 kts | 329° |
| 2026-04-29 01:20 | 24.94455 | 46.72245 | 2038 ft | 0 kts | 329° |
| 2026-04-29 01:21 | 24.94506 | 46.72211 | 2038 ft | 33 kts | 329° |
| 2026-04-29 01:21 | 24.94926 | 46.71946 | 2035 ft | 102 kts | 330° |
| 2026-04-29 01:21 | 24.95709 | 46.71451 | 2035 ft | 155 kts | 330° |
| 2026-04-29 01:21 | 24.96752 | 46.70804 | 2305 ft | 174 kts | 331° |
| 2026-04-29 01:22 | 24.97796 | 46.70152 | 3036 ft | 172 kts | 331° |
| 2026-04-29 01:22 | 24.98874 | 46.69475 | 3442 ft | 189 kts | 331° |
| 2026-04-29 01:22 | 25.00074 | 46.68720 | 3676 ft | 208 kts | 331° |
| 2026-04-29 01:22 | 25.01408 | 46.67883 | 3823 ft | 235 kts | 331° |
| 2026-04-29 01:23 | 25.02778 | 46.66760 | 4163 ft | 259 kts | 311° |
| 2026-04-29 01:23 | 25.03546 | 46.64949 | 4718 ft | 274 kts | 279° |
| 2026-04-29 01:23 | 25.03328 | 46.62855 | 5459 ft | 282 kts | 246° |
| 2026-04-29 01:23 | 25.02245 | 46.61044 | 6237 ft | 286 kts | 234° |
| 2026-04-29 01:24 | 25.01042 | 46.59284 | 6976 ft | 289 kts | 233° |
| 2026-04-29 01:24 | 24.99814 | 46.57510 | 7734 ft | 291 kts | 233° |
| 2026-04-29 01:24 | 24.98575 | 46.55724 | 8471 ft | 295 kts | 232° |
| 2026-04-29 01:24 | 24.97325 | 46.53918 | 9204 ft | 299 kts | 232° |
| 2026-04-29 01:25 | 24.96062 | 46.52086 | 9905 ft | 303 kts | 232° |
| 2026-04-29 01:25 | 24.94758 | 46.50198 | 10374 ft | 319 kts | 231° |
| 2026-04-29 01:25 | 24.93365 | 46.48176 | 10531 ft | 344 kts | 231° |
| 2026-04-29 01:25 | 24.91886 | 46.46029 | 10872 ft | 357 kts | 231° |
| 2026-04-29 01:26 | 24.90380 | 46.43835 | 11530 ft | 359 kts | 231° |
| 2026-04-29 01:26 | 24.88873 | 46.41637 | 12276 ft | 360 kts | 231° |
| 2026-04-29 01:26 | 24.87369 | 46.39440 | 13017 ft | 359 kts | 231° |
| 2026-04-29 01:26 | 24.85859 | 46.37241 | 13750 ft | 361 kts | 231° |
| 2026-04-29 01:27 | 24.84341 | 46.35033 | 14446 ft | 361 kts | 231° |
| 2026-04-29 01:27 | 24.82837 | 46.32848 | 15110 ft | 363 kts | 232° |
| 2026-04-29 01:27 | 24.81308 | 46.30629 | 15756 ft | 365 kts | 232° |
| 2026-04-29 01:27 | 24.79773 | 46.28403 | 16413 ft | 366 kts | 232° |
| 2026-04-29 01:28 | 24.78232 | 46.26173 | 17056 ft | 367 kts | 232° |
| 2026-04-29 01:28 | 24.76686 | 46.23935 | 17683 ft | 368 kts | 232° |
| 2026-04-29 01:28 | 24.75144 | 46.21686 | 18265 ft | 369 kts | 233° |
| 2026-04-29 01:28 | 24.73608 | 46.19394 | 18857 ft | 369 kts | 234° |
| 2026-04-29 01:29 | 24.72113 | 46.17134 | 19417 ft | 370 kts | 234° |
| 2026-04-29 01:29 | 24.70597 | 46.14836 | 19951 ft | 372 kts | 234° |
| 2026-04-29 01:29 | 24.69073 | 46.12529 | 20461 ft | 374 kts | 234° |
| 2026-04-29 01:29 | 24.67537 | 46.10214 | 20955 ft | 375 kts | 234° |
| 2026-04-29 01:30 | 24.65994 | 46.07896 | 21425 ft | 377 kts | 234° |
| 2026-04-29 01:30 | 24.64438 | 46.05563 | 21909 ft | 378 kts | 234° |
| 2026-04-29 01:30 | 24.62881 | 46.03232 | 22368 ft | 380 kts | 234° |
| 2026-04-29 01:30 | 24.61314 | 46.00887 | 22807 ft | 381 kts | 234° |
| 2026-04-29 01:31 | 24.59741 | 45.98532 | 23241 ft | 382 kts | 234° |
| 2026-04-29 01:31 | 24.58164 | 45.96175 | 23664 ft | 383 kts | 234° |
| 2026-04-29 01:31 | 24.57114 | 45.94607 | 23938 ft | 384 kts | 234° |
| 2026-04-29 01:31 | 24.54995 | 45.91439 | 24468 ft | 386 kts | 234° |
| 2026-04-29 01:32 | 24.53941 | 45.89861 | 24698 ft | 387 kts | 235° |
| 2026-04-29 01:32 | 24.52339 | 45.87469 | 25016 ft | 390 kts | 235° |
| 2026-04-29 01:32 | 24.50723 | 45.85061 | 25328 ft | 392 kts | 235° |
| 2026-04-29 01:32 | 24.49099 | 45.82642 | 25630 ft | 395 kts | 235° |
| 2026-04-29 01:33 | 24.47463 | 45.80207 | 25944 ft | 398 kts | 235° |
| 2026-04-29 01:33 | 24.45827 | 45.77752 | 26245 ft | 400 kts | 237° |
| 2026-04-29 01:33 | 24.44443 | 45.75098 | 26542 ft | 401 kts | 244° |
| 2026-04-29 01:33 | 24.43225 | 45.72335 | 26811 ft | 403 kts | 245° |
| 2026-04-29 01:34 | 24.41998 | 45.69561 | 27071 ft | 405 kts | 244° |
| 2026-04-29 01:34 | 24.40766 | 45.66787 | 27332 ft | 407 kts | 245° |
| 2026-04-29 01:34 | 24.39523 | 45.63987 | 27591 ft | 409 kts | 245° |
| 2026-04-29 01:34 | 24.38299 | 45.61233 | 27818 ft | 410 kts | 245° |
| 2026-04-29 01:35 | 24.37040 | 45.58409 | 28044 ft | 412 kts | 245° |
| 2026-04-29 01:35 | 24.35777 | 45.55578 | 28284 ft | 414 kts | 245° |
| 2026-04-29 01:35 | 24.34506 | 45.52728 | 28489 ft | 416 kts | 245° |
| 2026-04-29 01:35 | 24.33235 | 45.49872 | 28723 ft | 417 kts | 245° |
| 2026-04-29 01:36 | 24.31963 | 45.47014 | 29019 ft | 417 kts | 245° |
| 2026-04-29 01:36 | 24.30688 | 45.44153 | 29343 ft | 416 kts | 245° |
| 2026-04-29 01:36 | 24.29417 | 45.41311 | 29615 ft | 415 kts | 245° |
| 2026-04-29 01:36 | 24.28146 | 45.38474 | 29887 ft | 415 kts | 245° |
| 2026-04-29 01:37 | 24.26873 | 45.35634 | 30177 ft | 415 kts | 245° |
| 2026-04-29 01:37 | 24.25605 | 45.32803 | 30480 ft | 414 kts | 245° |
| 2026-04-29 01:37 | 24.24339 | 45.29976 | 30799 ft | 413 kts | 245° |
| 2026-04-29 01:37 | 24.23071 | 45.27149 | 31115 ft | 412 kts | 245° |
| 2026-04-29 01:38 | 24.21811 | 45.24343 | 31412 ft | 411 kts | 245° |
| 2026-04-29 01:38 | 24.20568 | 45.21571 | 31700 ft | 410 kts | 245° |
| 2026-04-29 01:38 | 24.19311 | 45.18768 | 32013 ft | 409 kts | 245° |
| 2026-04-29 01:38 | 24.18059 | 45.15973 | 32322 ft | 407 kts | 245° |
| 2026-04-29 01:39 | 24.16812 | 45.13194 | 32601 ft | 406 kts | 245° |
| 2026-04-29 01:39 | 24.15566 | 45.10419 | 32862 ft | 406 kts | 245° |
| 2026-04-29 01:39 | 24.14321 | 45.07647 | 33033 ft | 405 kts | 245° |
| 2026-04-29 01:39 | 24.13077 | 45.04887 | 33287 ft | 404 kts | 245° |
| 2026-04-29 01:40 | 24.11843 | 45.02160 | 33559 ft | 404 kts | 245° |
| 2026-04-29 01:40 | 24.10599 | 44.99410 | 33837 ft | 404 kts | 245° |
| 2026-04-29 01:40 | 24.08109 | 44.93893 | 33948 ft | 405 kts | 245° |
| 2026-04-29 01:41 | 24.05615 | 44.88363 | 33946 ft | 405 kts | 245° |
| 2026-04-29 01:41 | 24.03122 | 44.82844 | 33935 ft | 405 kts | 245° |
| 2026-04-29 01:42 | 24.00612 | 44.77311 | 33952 ft | 405 kts | 245° |
| 2026-04-29 01:42 | 23.98102 | 44.71789 | 33929 ft | 406 kts | 245° |
| 2026-04-29 01:43 | 23.95591 | 44.66246 | 33923 ft | 407 kts | 245° |
| 2026-04-29 01:43 | 23.93085 | 44.60686 | 33924 ft | 408 kts | 248° |
| 2026-04-29 01:44 | 23.91533 | 44.54738 | 33928 ft | 408 kts | 257° |
| 2026-04-29 01:44 | 23.90254 | 44.48704 | 33933 ft | 408 kts | 257° |
| 2026-04-29 01:45 | 23.88973 | 44.42668 | 33946 ft | 407 kts | 256° |
| 2026-04-29 01:45 | 23.87693 | 44.36684 | 33946 ft | 407 kts | 256° |
| 2026-04-29 01:46 | 23.86403 | 44.30666 | 33941 ft | 407 kts | 256° |
| 2026-04-29 01:46 | 23.85120 | 44.24652 | 33953 ft | 406 kts | 256° |
| 2026-04-29 01:47 | 23.83826 | 44.18643 | 33958 ft | 406 kts | 256° |
| 2026-04-29 01:47 | 23.82527 | 44.12623 | 33954 ft | 407 kts | 256° |
| 2026-04-29 01:48 | 23.81229 | 44.06610 | 33956 ft | 407 kts | 256° |
| 2026-04-29 01:48 | 23.79933 | 44.00605 | 33963 ft | 406 kts | 256° |
| 2026-04-29 01:49 | 23.78635 | 43.94608 | 33964 ft | 405 kts | 256° |
| 2026-04-29 01:49 | 23.77333 | 43.88621 | 33962 ft | 405 kts | 256° |
| 2026-04-29 01:50 | 23.76031 | 43.82667 | 33963 ft | 405 kts | 256° |
| 2026-04-29 01:50 | 23.74721 | 43.76683 | 33954 ft | 406 kts | 256° |
| 2026-04-29 01:51 | 23.73404 | 43.70690 | 33955 ft | 406 kts | 256° |
| 2026-04-29 01:51 | 23.72090 | 43.64709 | 33954 ft | 404 kts | 256° |
| 2026-04-29 01:52 | 23.70778 | 43.58748 | 33934 ft | 404 kts | 256° |
| 2026-04-29 01:52 | 23.69459 | 43.52786 | 33933 ft | 405 kts | 256° |
| 2026-04-29 01:53 | 23.68132 | 43.46813 | 33932 ft | 405 kts | 256° |
| 2026-04-29 01:53 | 23.66803 | 43.40830 | 33932 ft | 406 kts | 256° |
| 2026-04-29 01:54 | 23.65476 | 43.34835 | 33935 ft | 406 kts | 256° |
| 2026-04-29 01:54 | 23.64140 | 43.28841 | 33934 ft | 407 kts | 256° |
| 2026-04-29 01:55 | 23.62802 | 43.22879 | 33947 ft | 408 kts | 256° |
| 2026-04-29 01:55 | 23.61457 | 43.16865 | 33949 ft | 409 kts | 256° |
| 2026-04-29 01:56 | 23.60098 | 43.10787 | 33959 ft | 418 kts | 256° |
| 2026-04-29 01:56 | 23.58702 | 43.04564 | 33966 ft | 426 kts | 256° |
| 2026-04-29 01:57 | 23.57288 | 42.98282 | 33964 ft | 427 kts | 256° |
| 2026-04-29 01:57 | 23.55871 | 42.91996 | 33959 ft | 427 kts | 256° |
| 2026-04-29 01:58 | 23.54449 | 42.85704 | 33962 ft | 428 kts | 256° |
| 2026-04-29 01:58 | 23.53031 | 42.79419 | 33971 ft | 427 kts | 256° |
| 2026-04-29 01:59 | 23.51610 | 42.73132 | 33970 ft | 427 kts | 256° |
| 2026-04-29 01:59 | 23.50176 | 42.66845 | 33977 ft | 428 kts | 256° |
| 2026-04-29 02:00 | 23.48746 | 42.60558 | 33981 ft | 427 kts | 256° |
| 2026-04-29 02:00 | 23.47336 | 42.54371 | 33987 ft | 406 kts | 256° |
| 2026-04-29 02:01 | 23.45974 | 42.48422 | 33988 ft | 401 kts | 256° |
| 2026-04-29 02:01 | 23.44625 | 42.42534 | 33988 ft | 401 kts | 256° |
| 2026-04-29 02:02 | 23.43265 | 42.36613 | 33990 ft | 406 kts | 256° |
| 2026-04-29 02:02 | 23.41905 | 42.30682 | 33989 ft | 407 kts | 256° |
| 2026-04-29 02:03 | 23.40531 | 42.24697 | 33989 ft | 408 kts | 256° |
| 2026-04-29 02:03 | 23.39145 | 42.18700 | 33998 ft | 408 kts | 256° |
| 2026-04-29 02:04 | 23.37755 | 42.12713 | 34007 ft | 407 kts | 256° |
| 2026-04-29 02:04 | 23.36374 | 42.06737 | 34008 ft | 407 kts | 256° |
| 2026-04-29 02:05 | 23.34989 | 42.00764 | 34002 ft | 407 kts | 255° |
| 2026-04-29 02:05 | 23.33599 | 41.94794 | 34001 ft | 407 kts | 256° |
| 2026-04-29 02:06 | 23.32216 | 41.88825 | 34001 ft | 407 kts | 256° |
| 2026-04-29 02:06 | 23.30831 | 41.82858 | 34007 ft | 406 kts | 255° |
| 2026-04-29 02:07 | 23.29440 | 41.76913 | 34007 ft | 406 kts | 255° |
| 2026-04-29 02:07 | 23.27692 | 41.71115 | 34013 ft | 403 kts | 244° |
| 2026-04-29 02:08 | 23.24728 | 41.65927 | 34008 ft | 408 kts | 239° |
| 2026-04-29 02:08 | 23.21654 | 41.60720 | 34009 ft | 409 kts | 239° |
| 2026-04-29 02:09 | 23.18580 | 41.55514 | 34021 ft | 410 kts | 239° |
| 2026-04-29 02:09 | 23.15489 | 41.50297 | 34035 ft | 410 kts | 239° |
| 2026-04-29 02:10 | 23.12394 | 41.45092 | 34034 ft | 410 kts | 239° |
| 2026-04-29 02:10 | 23.09313 | 41.39885 | 34034 ft | 411 kts | 239° |
| 2026-04-29 02:11 | 23.06216 | 41.34662 | 34027 ft | 411 kts | 239° |
| 2026-04-29 02:11 | 23.03110 | 41.29449 | 34031 ft | 411 kts | 239° |
| 2026-04-29 02:12 | 23.00009 | 41.24238 | 34040 ft | 410 kts | 239° |
| 2026-04-29 02:12 | 22.96922 | 41.19051 | 34023 ft | 409 kts | 239° |
| 2026-04-29 02:13 | 22.93849 | 41.13892 | 34027 ft | 410 kts | 239° |
| 2026-04-29 02:13 | 22.90752 | 41.08687 | 34025 ft | 411 kts | 239° |
| 2026-04-29 02:14 | 22.87654 | 41.03480 | 34021 ft | 411 kts | 239° |
| 2026-04-29 02:14 | 22.84541 | 40.98276 | 34034 ft | 411 kts | 239° |
| 2026-04-29 02:15 | 22.81423 | 40.93075 | 34044 ft | 411 kts | 239° |
| 2026-04-29 02:15 | 22.78306 | 40.87883 | 34047 ft | 411 kts | 239° |
| 2026-04-29 02:16 | 22.75186 | 40.82685 | 34046 ft | 412 kts | 239° |
| 2026-04-29 02:16 | 22.72059 | 40.77473 | 34046 ft | 413 kts | 239° |
| 2026-04-29 02:17 | 22.68949 | 40.72293 | 34053 ft | 413 kts | 239° |
| 2026-04-29 02:17 | 22.65807 | 40.67085 | 34050 ft | 412 kts | 238° |
| 2026-04-29 02:18 | 22.62672 | 40.61882 | 34053 ft | 413 kts | 239° |
| 2026-04-29 02:18 | 22.59535 | 40.56674 | 33816 ft | 414 kts | 239° |
| 2026-04-29 02:19 | 22.57954 | 40.54054 | 32812 ft | 419 kts | 239° |
| 2026-04-29 02:19 | 22.56354 | 40.51408 | 31902 ft | 421 kts | 239° |
| 2026-04-29 02:19 | 22.54746 | 40.48749 | 30934 ft | 423 kts | 239° |
| 2026-04-29 02:19 | 22.53128 | 40.46073 | 29898 ft | 427 kts | 239° |
| 2026-04-29 02:20 | 22.51496 | 40.43374 | 28849 ft | 429 kts | 239° |
| 2026-04-29 02:20 | 22.49856 | 40.40659 | 27726 ft | 433 kts | 239° |
| 2026-04-29 02:20 | 22.48206 | 40.37929 | 26668 ft | 434 kts | 238° |
| 2026-04-29 02:20 | 22.46567 | 40.35223 | 26046 ft | 426 kts | 238° |
| 2026-04-29 02:21 | 22.44957 | 40.32566 | 25328 ft | 419 kts | 238° |
| 2026-04-29 02:21 | 22.43903 | 40.30829 | 24864 ft | 415 kts | 237° |
| 2026-04-29 02:21 | 22.42335 | 40.28244 | 24161 ft | 409 kts | 237° |
| 2026-04-29 02:21 | 22.40789 | 40.25697 | 23487 ft | 403 kts | 237° |
| 2026-04-29 02:22 | 22.39262 | 40.23182 | 22836 ft | 397 kts | 237° |
| 2026-04-29 02:22 | 22.37760 | 40.20706 | 22198 ft | 392 kts | 237° |
| 2026-04-29 02:22 | 22.36273 | 40.18253 | 21602 ft | 387 kts | 237° |
| 2026-04-29 02:22 | 22.34812 | 40.15839 | 21013 ft | 382 kts | 236° |
| 2026-04-29 02:23 | 22.33364 | 40.13453 | 20430 ft | 377 kts | 236° |
| 2026-04-29 02:23 | 22.31931 | 40.11106 | 19889 ft | 371 kts | 236° |
| 2026-04-29 02:23 | 22.30519 | 40.08794 | 19354 ft | 367 kts | 236° |
| 2026-04-29 02:23 | 22.29121 | 40.06506 | 18842 ft | 362 kts | 236° |
| 2026-04-29 02:24 | 22.27744 | 40.04255 | 18358 ft | 357 kts | 236° |
| 2026-04-29 02:24 | 22.26385 | 40.02030 | 17941 ft | 351 kts | 236° |
| 2026-04-29 02:24 | 22.25072 | 39.99872 | 17818 ft | 337 kts | 236° |
| 2026-04-29 02:25 | 22.22619 | 39.95838 | 17588 ft | 310 kts | 236° |
| 2026-04-29 02:25 | 22.21458 | 39.93929 | 17414 ft | 298 kts | 235° |
| 2026-04-29 02:25 | 22.20328 | 39.92080 | 17222 ft | 293 kts | 235° |
| 2026-04-29 02:25 | 22.19203 | 39.90244 | 17165 ft | 293 kts | 235° |
| 2026-04-29 02:26 | 22.18080 | 39.88409 | 17049 ft | 294 kts | 235° |
| 2026-04-29 02:26 | 22.16953 | 39.86567 | 16916 ft | 294 kts | 235° |
| 2026-04-29 02:26 | 22.15820 | 39.84729 | 16801 ft | 293 kts | 233° |
| 2026-04-29 02:26 | 22.14437 | 39.83130 | 16547 ft | 291 kts | 224° |
| 2026-04-29 02:27 | 22.12986 | 39.81613 | 16304 ft | 290 kts | 224° |
| 2026-04-29 02:27 | 22.11543 | 39.80102 | 16055 ft | 289 kts | 224° |
| 2026-04-29 02:27 | 22.10099 | 39.78589 | 15799 ft | 289 kts | 224° |
| 2026-04-29 02:27 | 22.08663 | 39.77080 | 15554 ft | 288 kts | 224° |
| 2026-04-29 02:28 | 22.07225 | 39.75571 | 15322 ft | 288 kts | 224° |
| 2026-04-29 02:28 | 22.05793 | 39.74065 | 15068 ft | 288 kts | 224° |
| 2026-04-29 02:28 | 22.04357 | 39.72561 | 14817 ft | 287 kts | 224° |
| 2026-04-29 02:28 | 22.02929 | 39.71064 | 14577 ft | 287 kts | 224° |
| 2026-04-29 02:29 | 22.01498 | 39.69568 | 14334 ft | 286 kts | 224° |
| 2026-04-29 02:29 | 22.00071 | 39.68076 | 14078 ft | 286 kts | 224° |
| 2026-04-29 02:29 | 21.98645 | 39.66583 | 13832 ft | 286 kts | 224° |
| 2026-04-29 02:29 | 21.97226 | 39.65097 | 13587 ft | 285 kts | 224° |
| 2026-04-29 02:30 | 21.95806 | 39.63613 | 13327 ft | 284 kts | 224° |
| 2026-04-29 02:30 | 21.94390 | 39.62129 | 12955 ft | 286 kts | 224° |
| 2026-04-29 02:30 | 21.92947 | 39.60620 | 12322 ft | 287 kts | 224° |
| 2026-04-29 02:30 | 21.91574 | 39.59187 | 11704 ft | 284 kts | 224° |
| 2026-04-29 02:31 | 21.90159 | 39.57711 | 11029 ft | 283 kts | 224° |
| 2026-04-29 02:31 | 21.88754 | 39.56244 | 10470 ft | 276 kts | 224° |
| 2026-04-29 02:31 | 21.87412 | 39.54839 | 10122 ft | 265 kts | 224° |
| 2026-04-29 02:31 | 21.86114 | 39.53468 | 9959 ft | 259 kts | 225° |
| 2026-04-29 02:32 | 21.84819 | 39.52097 | 9764 ft | 262 kts | 225° |
| 2026-04-29 02:32 | 21.83517 | 39.50721 | 9421 ft | 262 kts | 225° |
| 2026-04-29 02:32 | 21.82219 | 39.49350 | 9073 ft | 261 kts | 225° |
| 2026-04-29 02:32 | 21.80928 | 39.47982 | 8728 ft | 261 kts | 225° |
| 2026-04-29 02:33 | 21.79633 | 39.46616 | 8394 ft | 260 kts | 225° |
| 2026-04-29 02:33 | 21.78346 | 39.45262 | 8052 ft | 259 kts | 225° |
| 2026-04-29 02:33 | 21.77063 | 39.43908 | 7713 ft | 258 kts | 226° |
| 2026-04-29 02:33 | 21.75785 | 39.42557 | 7377 ft | 258 kts | 226° |
| 2026-04-29 02:34 | 21.74507 | 39.41210 | 7040 ft | 257 kts | 226° |
| 2026-04-29 02:34 | 21.73231 | 39.39870 | 6697 ft | 255 kts | 226° |
| 2026-04-29 02:34 | 21.71959 | 39.38535 | 6355 ft | 255 kts | 226° |
| 2026-04-29 02:34 | 21.70699 | 39.37212 | 6036 ft | 254 kts | 226° |
| 2026-04-29 02:35 | 21.69438 | 39.35889 | 5701 ft | 252 kts | 226° |
| 2026-04-29 02:35 | 21.68200 | 39.34583 | 5365 ft | 252 kts | 226° |
| 2026-04-29 02:35 | 21.66953 | 39.33266 | 5027 ft | 251 kts | 226° |
| 2026-04-29 02:35 | 21.65710 | 39.31955 | 4707 ft | 250 kts | 225° |
| 2026-04-29 02:36 | 21.64430 | 39.30711 | 4395 ft | 247 kts | 215° |
| 2026-04-29 02:36 | 21.62910 | 39.30001 | 4267 ft | 232 kts | 193° |
| 2026-04-29 02:36 | 21.61357 | 39.29931 | 4135 ft | 219 kts | 172° |
| 2026-04-29 02:36 | 21.59926 | 39.30379 | 3848 ft | 213 kts | 161° |
| 2026-04-29 02:37 | 21.58535 | 39.30927 | 3583 ft | 212 kts | 161° |
| 2026-04-29 02:37 | 21.57149 | 39.31470 | 3407 ft | 212 kts | 161° |
| 2026-04-29 02:37 | 21.55764 | 39.32013 | 3253 ft | 213 kts | 161° |
| 2026-04-29 02:37 | 21.54382 | 39.32554 | 3112 ft | 210 kts | 160° |
| 2026-04-29 02:38 | 21.52989 | 39.33041 | 3005 ft | 210 kts | 173° |
| 2026-04-29 02:38 | 21.51560 | 39.32919 | 2876 ft | 207 kts | 202° |
| 2026-04-29 02:38 | 21.50394 | 39.32066 | 2749 ft | 203 kts | 232° |
| 2026-04-29 02:38 | 21.49781 | 39.30736 | 2627 ft | 200 kts | 261° |
| 2026-04-29 02:39 | 21.49828 | 39.29263 | 2508 ft | 198 kts | 282° |
| 2026-04-29 02:39 | 21.50087 | 39.27809 | 2394 ft | 198 kts | 281° |
| 2026-04-29 02:39 | 21.50339 | 39.26354 | 2258 ft | 198 kts | 284° |
| 2026-04-29 02:39 | 21.50885 | 39.25017 | 2163 ft | 196 kts | 306° |
| 2026-04-29 02:40 | 21.51842 | 39.23990 | 2099 ft | 196 kts | 323° |
| 2026-04-29 02:40 | 21.52910 | 39.23074 | 2014 ft | 196 kts | 320° |
| 2026-04-29 02:40 | 21.53939 | 39.22144 | 1933 ft | 188 kts | 320° |
| 2026-04-29 02:40 | 21.54896 | 39.21262 | 1835 ft | 174 kts | 320° |
| 2026-04-29 02:41 | 21.55849 | 39.20526 | 1721 ft | 167 kts | 340° |
| 2026-04-29 02:41 | 21.56932 | 39.20123 | 1652 ft | 160 kts | 340° |
| 2026-04-29 02:41 | 21.57910 | 39.19732 | 1584 ft | 145 kts | 340° |
| 2026-04-29 02:41 | 21.58841 | 39.19363 | 1481 ft | 141 kts | 340° |
| 2026-04-29 02:42 | 21.59756 | 39.19001 | 1356 ft | 139 kts | 340° |
| 2026-04-29 02:42 | 21.60663 | 39.18644 | 1188 ft | 138 kts | 340° |
| 2026-04-29 02:42 | 21.61561 | 39.18289 | 1014 ft | 138 kts | 340° |
| 2026-04-29 02:42 | 21.62459 | 39.17935 | 830 ft | 137 kts | 340° |
| 2026-04-29 02:43 | 21.63353 | 39.17583 | 658 ft | 137 kts | 340° |
| 2026-04-29 02:43 | 21.64249 | 39.17230 | 470 ft | 137 kts | 340° |
| 2026-04-29 02:43 | 21.65140 | 39.16878 | 296 ft | 136 kts | 340° |
| 2026-04-29 02:43 | 21.66028 | 39.16528 | 113 ft | 137 kts | 340° |
| 2026-04-29 02:44 | 21.66887 | 39.16183 | 40 ft | 121 kts | 342° |
| 2026-04-29 02:44 | 21.67540 | 39.15930 | 35 ft | 75 kts | 340° |
| 2026-04-29 02:44 | 21.67872 | 39.15799 | 35 ft | 32 kts | 340° |
| 2026-04-29 02:44 | 21.68082 | 39.15728 | 37 ft | 31 kts | 349° |
| 2026-04-29 02:45 | 21.68279 | 39.15733 | 31 ft | 18 kts | 9° |
| 2026-04-29 02:45 | 21.68319 | 39.15813 | 31 ft | 13 kts | 125° |
| 2026-04-29 02:45 | 21.68248 | 39.15848 | 33 ft | 10 kts | 160° |
| 2026-04-29 02:45 | 21.68194 | 39.15869 | 34 ft | 7 kts | 160° |
| 2026-04-29 02:46 | 21.68152 | 39.15885 | 34 ft | 6 kts | 160° |
| 2026-04-29 02:46 | 21.68114 | 39.15899 | 33 ft | 9 kts | 161° |
| 2026-04-29 02:46 | 21.68031 | 39.15929 | 34 ft | 13 kts | 161° |
| 2026-04-29 02:46 | 21.67957 | 39.15959 | 36 ft | 10 kts | 159° |
| 2026-04-29 02:47 | 21.67900 | 39.15984 | 36 ft | 8 kts | 158° |
| 2026-04-29 02:47 | 21.67848 | 39.16005 | 36 ft | 10 kts | 160° |
| 2026-04-29 02:47 | 21.67746 | 39.16045 | 33 ft | 19 kts | 159° |
| 2026-04-29 02:47 | 21.67608 | 39.16100 | 30 ft | 22 kts | 160° |
| 2026-04-29 02:48 | 21.67456 | 39.16160 | 30 ft | 24 kts | 160° |
| 2026-04-29 02:48 | 21.67299 | 39.16223 | 31 ft | 25 kts | 159° |
| 2026-04-29 02:48 | 21.67158 | 39.16285 | 31 ft | 20 kts | 163° |
| 2026-04-29 02:48 | 21.67014 | 39.16333 | 32 ft | 22 kts | 161° |
| 2026-04-29 02:49 | 21.66879 | 39.16393 | 31 ft | 17 kts | 144° |